Time;durP1;ratioP1;P1;durP2;ratioP2;P2;SDS_P1;SDS_P2;PMS_P1;PMS_P2;Temp;Humidity;BMP_temperature;BMP_pressure;BME280_temperature;BME280_humidity;BME280_pressure;Samples;Min_cycle;Max_cycle;Signal;HPM_P1;HPM_P2
2024/01/23 00:01:42;;;;;;;15.82;10.40;;;;;;;;;;6294505;28;24824;-74
2024/01/23 00:04:44;;;;;;;16.73;10.65;;;;;;;;;;6266502;28;24423;-75
2024/01/23 00:07:47;;;;;;;14.90;9.73;;;;;;;;;;6266664;28;24414;-75
2024/01/23 00:10:49;;;;;;;15.77;8.82;;;;;;;;;;6268232;28;24426;-75
2024/01/23 00:13:51;;;;;;;14.07;9.88;;;;;;;;;;6268429;28;24422;-74
2024/01/23 00:16:53;;;;;;;13.75;9.07;;;;;;;;;;6273558;28;24799;-73
2024/01/23 00:19:54;;;;;;;13.98;9.07;;;;;;;;;;6302232;28;24446;-74
2024/01/23 00:22:57;;;;;;;16.38;8.88;;;;;;;;;;6266014;28;24458;-74
2024/01/23 00:25:59;;;;;;;12.00;8.30;;;;;;;;;;6268362;28;24850;-74
2024/01/23 00:29:02;;;;;;;13.53;8.20;;;;;;;;;;6269542;28;24502;-74
2024/01/23 00:32:04;;;;;;;13.40;7.97;;;;;;;;;;6267136;28;24665;-74
2024/01/23 00:35:07;;;;;;;12.82;8.27;;;;;;;;;;6267307;28;24498;-75
2024/01/23 00:38:10;;;;;;;11.50;7.75;;;;;;;;;;6265580;28;24446;-74
2024/01/23 00:41:11;;;;;;;13.07;8.55;;;;;;;;;;6270240;28;24419;-73
2024/01/23 00:44:13;;;;;;;12.43;8.73;;;;;;;;;;6269745;28;24422;-74
2024/01/23 00:47:15;;;;;;;13.18;8.30;;;;;;;;;;6300299;28;24458;-74
2024/01/23 00:50:17;;;;;;;14.30;8.50;;;;;;;;;;6266423;28;24500;-74
2024/01/23 00:53:20;;;;;;;14.52;8.88;;;;;;;;;;6266325;28;24430;-74
2024/01/23 00:56:22;;;;;;;13.32;8.45;;;;;;;;;;6266454;28;24430;-74
2024/01/23 00:59:23;;;;;;;13.77;8.63;;;;;;;;;;6265299;28;24424;-74
2024/01/23 01:02:25;;;;;;;11.93;7.88;;;;;;;;;;6263682;28;24419;-74
2024/01/23 01:05:26;;;;;;;13.10;8.70;;;;;;;;;;6266657;28;24864;-74
2024/01/23 01:08:29;;;;;;;15.63;8.77;;;;;;;;;;6265692;28;24412;-74
2024/01/23 01:11:31;;;;;;;13.63;8.45;;;;;;;;;;6266347;28;24614;-74
2024/01/23 01:14:33;;;;;;;13.20;8.57;;;;;;;;;;6297394;28;24421;-74
2024/01/23 01:17:35;;;;;;;12.43;8.27;;;;;;;;;;6268193;28;24429;-74
2024/01/23 01:20:36;;;;;;;13.45;8.77;;;;;;;;;;6269169;28;24423;-74
2024/01/23 01:23:39;;;;;;;13.63;8.48;;;;;;;;;;6264889;28;24419;-74
2024/01/23 01:26:41;;;;;;;14.20;8.95;;;;;;;;;;6265149;28;24493;-74
2024/01/23 01:29:42;;;;;;;14.87;8.87;;;;;;;;;;6265204;28;24426;-74
2024/01/23 01:32:44;;;;;;;15.65;9.18;;;;;;;;;;6267041;28;24431;-74
2024/01/23 01:35:45;;;;;;;14.23;9.00;;;;;;;;;;6266865;28;24423;-74
2024/01/23 01:38:48;;;;;;;14.93;9.38;;;;;;;;;;6268314;28;24489;-74
2024/01/23 01:41:53;;;;;;;14.68;9.70;;;;;;;;;;6265187;28;24614;-74
2024/01/23 01:44:54;;;;;;;16.60;10.43;;;;;;;;;;6267563;28;24593;-74
2024/01/23 01:47:56;;;;;;;15.85;9.75;;;;;;;;;;6265936;28;24430;-74
2024/01/23 01:50:58;;;;;;;16.98;10.95;;;;;;;;;;6265498;28;24478;-74
2024/01/23 01:54:01;;;;;;;18.95;10.20;;;;;;;;;;6266232;28;24446;-74
2024/01/23 01:57:03;;;;;;;14.55;9.68;;;;;;;;;;6263689;28;24431;-74
2024/01/23 02:00:06;;;;;;;16.27;10.23;;;;;;;;;;6267627;28;24886;-73
2024/01/23 02:03:08;;;;;;;15.90;9.70;;;;;;;;;;6263080;28;24426;-74
2024/01/23 02:06:10;;;;;;;16.50;9.75;;;;;;;;;;6268015;28;24424;-74
2024/01/23 02:09:13;;;;;;;14.93;9.80;;;;;;;;;;6263711;28;24431;-74
2024/01/23 02:12:14;;;;;;;14.30;9.02;;;;;;;;;;6262668;28;24867;-74
2024/01/23 02:15:17;;;;;;;15.23;9.20;;;;;;;;;;6297103;28;24808;-74
2024/01/23 02:18:19;;;;;;;13.75;9.05;;;;;;;;;;6264972;28;24534;-74
2024/01/23 02:21:20;;;;;;;15.18;8.90;;;;;;;;;;6261631;28;25065;-74
2024/01/23 02:24:23;;;;;;;12.95;8.88;;;;;;;;;;6264126;28;24427;-74
2024/01/23 02:27:24;;;;;;;12.05;8.32;;;;;;;;;;6264158;28;25740;-74
2024/01/23 02:30:26;;;;;;;13.33;8.63;;;;;;;;;;6265236;28;24497;-74
2024/01/23 02:33:28;;;;;;;12.00;7.70;;;;;;;;;;6263971;28;24415;-74
2024/01/23 02:36:29;;;;;;;13.25;8.15;;;;;;;;;;6264018;28;24518;-74
2024/01/23 02:39:32;;;;;;;11.10;7.32;;;;;;;;;;6262663;28;24424;-74
2024/01/23 02:42:34;;;;;;;11.70;7.70;;;;;;;;;;6262584;28;24423;-74
2024/01/23 02:45:35;;;;;;;11.63;7.53;;;;;;;;;;6261776;28;24415;-74
2024/01/23 02:48:37;;;;;;;11.52;7.43;;;;;;;;;;6265533;28;24606;-74
2024/01/23 02:51:39;;;;;;;11.85;7.53;;;;;;;;;;6262710;28;24832;-74
2024/01/23 02:54:42;;;;;;;12.27;7.38;;;;;;;;;;6260505;28;24439;-74
2024/01/23 02:57:44;;;;;;;9.67;6.73;;;;;;;;;;6263530;28;24447;-78
2024/01/23 03:00:45;;;;;;;10.73;7.20;;;;;;;;;;6266253;28;24432;-77
2024/01/23 03:03:47;;;;;;;9.65;6.75;;;;;;;;;;6261688;28;24431;-77
2024/01/23 03:06:49;;;;;;;11.27;7.43;;;;;;;;;;6263086;28;24427;-77
2024/01/23 03:09:53;;;;;;;10.80;7.18;;;;;;;;;;6264461;28;24622;-77
2024/01/23 03:12:54;;;;;;;10.35;6.88;;;;;;;;;;6261122;28;24459;-77
2024/01/23 03:15:56;;;;;;;11.43;6.75;;;;;;;;;;6266526;28;24638;-77
2024/01/23 03:18:57;;;;;;;10.55;6.88;;;;;;;;;;6262224;28;24439;-77
2024/01/23 03:21:59;;;;;;;11.18;7.03;;;;;;;;;;6260602;28;24802;-77
2024/01/23 03:25:02;;;;;;;10.65;6.63;;;;;;;;;;6238930;28;24417;-77
2024/01/23 03:28:04;;;;;;;11.10;6.40;;;;;;;;;;6239582;28;24714;-78
2024/01/23 03:31:05;;;;;;;9.95;6.40;;;;;;;;;;6236420;28;24416;-77
2024/01/23 03:34:07;;;;;;;9.40;6.25;;;;;;;;;;6238159;28;24431;-77
2024/01/23 03:37:10;;;;;;;9.20;6.18;;;;;;;;;;6238884;28;24466;-76
2024/01/23 03:40:14;;;;;;;11.68;6.78;;;;;;;;;;6240194;28;24489;-78
2024/01/23 03:43:16;;;;;;;10.02;6.07;;;;;;;;;;6240787;28;24683;-77
2024/01/23 03:46:19;;;;;;;9.50;6.22;;;;;;;;;;6246223;28;24497;-77
2024/01/23 03:49:21;;;;;;;9.27;6.03;;;;;;;;;;6245117;28;24435;-78
2024/01/23 03:52:23;;;;;;;9.65;6.03;;;;;;;;;;6244608;28;24444;-78
2024/01/23 03:55:26;;;;;;;9.73;6.07;;;;;;;;;;6247154;28;24450;-77
2024/01/23 03:58:28;;;;;;;9.23;6.35;;;;;;;;;;6242863;28;24423;-78
2024/01/23 04:01:30;;;;;;;10.40;6.18;;;;;;;;;;6239465;28;24626;-78
2024/01/23 04:04:32;;;;;;;10.30;6.07;;;;;;;;;;6239976;28;24424;-77
2024/01/23 04:07:33;;;;;;;9.63;6.00;;;;;;;;;;6243132;28;24479;-74
2024/01/23 04:10:36;;;;;;;9.15;5.55;;;;;;;;;;6242805;28;24412;-75
2024/01/23 04:13:38;;;;;;;9.70;5.97;;;;;;;;;;6245069;28;24420;-74
2024/01/23 04:16:39;;;;;;;9.48;5.82;;;;;;;;;;6244966;28;24436;-74
2024/01/23 04:19:41;;;;;;;8.85;5.65;;;;;;;;;;6241207;28;24427;-74
2024/01/23 04:22:42;;;;;;;9.75;5.78;;;;;;;;;;6245097;28;24427;-74
2024/01/23 04:25:46;;;;;;;9.82;5.88;;;;;;;;;;6243309;28;24471;-73
2024/01/23 04:28:48;;;;;;;8.95;5.50;;;;;;;;;;6242801;28;24435;-73
2024/01/23 04:31:49;;;;;;;8.85;5.57;;;;;;;;;;6242548;28;24412;-73
2024/01/23 04:34:51;;;;;;;8.43;5.47;;;;;;;;;;6240797;28;24488;-74
2024/01/23 04:37:52;;;;;;;8.60;5.47;;;;;;;;;;6242050;28;24416;-74
2024/01/23 04:40:55;;;;;;;9.50;5.97;;;;;;;;;;6243216;28;24431;-73
2024/01/23 04:43:57;;;;;;;8.77;5.40;;;;;;;;;;6241183;28;24479;-73
2024/01/23 04:46:59;;;;;;;9.07;5.40;;;;;;;;;;6242295;28;24470;-73
2024/01/23 04:50:00;;;;;;;9.25;5.68;;;;;;;;;;6241066;28;24419;-73
2024/01/23 04:53:02;;;;;;;7.88;5.40;;;;;;;;;;6243623;28;25025;-73
2024/01/23 04:56:05;;;;;;;8.98;5.70;;;;;;;;;;6244166;28;24403;-73
2024/01/23 04:59:07;;;;;;;10.05;5.93;;;;;;;;;;6244048;28;24444;-74
2024/01/23 05:02:09;;;;;;;9.35;5.30;;;;;;;;;;6241601;28;24872;-74
2024/01/23 05:05:10;;;;;;;8.32;5.72;;;;;;;;;;6246051;28;24419;-74
2024/01/23 05:08:12;;;;;;;8.63;5.60;;;;;;;;;;6244486;28;24462;-73
2024/01/23 05:11:15;;;;;;;10.15;5.90;;;;;;;;;;6239389;28;24412;-74
2024/01/23 05:14:17;;;;;;;8.82;5.93;;;;;;;;;;6240738;28;24466;-74
2024/01/23 05:17:18;;;;;;;9.30;5.70;;;;;;;;;;6241402;28;24538;-74
2024/01/23 05:20:20;;;;;;;11.38;6.18;;;;;;;;;;6241389;28;25110;-74
2024/01/23 05:23:24;;;;;;;11.88;6.15;;;;;;;;;;6239594;28;24884;-74
2024/01/23 05:26:26;;;;;;;9.25;5.45;;;;;;;;;;6240159;28;24872;-74
2024/01/23 05:29:28;;;;;;;11.82;6.10;;;;;;;;;;6238748;28;24879;-74
2024/01/23 05:32:29;;;;;;;9.85;6.32;;;;;;;;;;6241212;28;24435;-74
2024/01/23 05:35:31;;;;;;;12.32;6.82;;;;;;;;;;6239950;28;24850;-75
2024/01/23 05:38:33;;;;;;;12.85;6.55;;;;;;;;;;6242706;28;24872;-74
2024/01/23 05:41:36;;;;;;;10.77;6.85;;;;;;;;;;6239629;28;24525;-74
2024/01/23 05:44:37;;;;;;;10.60;6.57;;;;;;;;;;6240689;28;24432;-74
2024/01/23 05:47:39;;;;;;;11.32;6.97;;;;;;;;;;6243382;28;24646;-74
2024/01/23 05:50:40;;;;;;;9.93;6.90;;;;;;;;;;6240476;28;24500;-74
2024/01/23 05:53:42;;;;;;;9.97;6.47;;;;;;;;;;6239593;28;24424;-74
2024/01/23 05:56:44;;;;;;;12.73;7.17;;;;;;;;;;6240984;28;24615;-73
2024/01/23 05:59:46;;;;;;;12.13;6.80;;;;;;;;;;6237795;28;24444;-74
2024/01/23 06:02:50;;;;;;;12.73;6.90;;;;;;;;;;6240016;28;24832;-74
2024/01/23 06:05:52;;;;;;;17.15;7.05;;;;;;;;;;6242736;28;24439;-75
2024/01/23 06:08:54;;;;;;;11.20;6.75;;;;;;;;;;6240259;28;24693;-74
2024/01/23 06:11:57;;;;;;;12.38;6.43;;;;;;;;;;6241730;28;24852;-74
2024/01/23 06:14:58;;;;;;;11.48;6.80;;;;;;;;;;6239925;28;24435;-74
2024/01/23 06:18:00;;;;;;;12.17;6.73;;;;;;;;;;6241501;28;24812;-74
2024/01/23 06:21:01;;;;;;;11.27;6.07;;;;;;;;;;6241448;28;24439;-74
2024/01/23 06:24:03;;;;;;;10.38;6.18;;;;;;;;;;6221073;28;24643;-74
2024/01/23 06:27:06;;;;;;;10.50;6.28;;;;;;;;;;6238832;28;24837;-74
2024/01/23 06:30:11;;;;;;;10.90;6.93;;;;;;;;;;6238980;28;24435;-74
2024/01/23 06:33:13;;;;;;;12.73;7.20;;;;;;;;;;6239285;28;24418;-74
2024/01/23 06:36:14;;;;;;;10.50;6.25;;;;;;;;;;6240004;28;24424;-74
2024/01/23 06:39:16;;;;;;;9.55;6.00;;;;;;;;;;6240162;28;24673;-74
2024/01/23 06:42:19;;;;;;;9.93;6.60;;;;;;;;;;6238735;28;24499;-74
2024/01/23 06:45:21;;;;;;;13.65;7.22;;;;;;;;;;6239765;28;24416;-74
2024/01/23 06:48:22;;;;;;;11.45;6.97;;;;;;;;;;6237931;28;25049;-75
2024/01/23 06:51:24;;;;;;;12.32;7.20;;;;;;;;;;6238951;28;24443;-75
2024/01/23 06:54:26;;;;;;;12.90;7.68;;;;;;;;;;6236512;28;24417;-74
2024/01/23 06:57:29;;;;;;;13.47;8.23;;;;;;;;;;6241697;28;24658;-75
2024/01/23 07:00:30;;;;;;;11.65;7.65;;;;;;;;;;6239343;28;24431;-75
2024/01/23 07:03:32;;;;;;;15.27;9.20;;;;;;;;;;6241025;28;24428;-75
2024/01/23 07:06:33;;;;;;;14.13;9.27;;;;;;;;;;6240802;28;24529;-73
2024/01/23 07:09:35;;;;;;;15.77;9.60;;;;;;;;;;6269503;28;24420;-75
2024/01/23 07:12:38;;;;;;;17.25;9.40;;;;;;;;;;6239099;28;24474;-75
2024/01/23 07:15:40;;;;;;;17.30;9.30;;;;;;;;;;6240509;28;24433;-75
2024/01/23 07:18:41;;;;;;;16.63;9.57;;;;;;;;;;6237998;28;24876;-75
2024/01/23 07:21:46;;;;;;;13.73;9.18;;;;;;;;;;6261795;28;24514;-75
2024/01/23 07:24:47;;;;;;;14.10;9.30;;;;;;;;;;6238080;28;24817;-75
2024/01/23 07:27:51;;;;;;;17.30;9.45;;;;;;;;;;6240464;28;24424;-75
2024/01/23 07:30:53;;;;;;;14.82;8.70;;;;;;;;;;6238981;28;24421;-75
2024/01/23 07:33:54;;;;;;;15.95;8.45;;;;;;;;;;6236078;28;24426;-76
2024/01/23 07:36:56;;;;;;;14.68;8.50;;;;;;;;;;6241089;28;24629;-79
2024/01/23 07:39:58;;;;;;;16.23;7.82;;;;;;;;;;6240684;28;24438;-79
2024/01/23 07:43:01;;;;;;;14.70;7.85;;;;;;;;;;6238458;28;25040;-79
2024/01/23 07:46:02;;;;;;;16.40;8.00;;;;;;;;;;6238797;28;24670;-77
2024/01/23 07:49:04;;;;;;;15.63;8.13;;;;;;;;;;6236673;28;24428;-79
2024/01/23 07:52:06;;;;;;;15.38;7.95;;;;;;;;;;6238697;28;24852;-79
2024/01/23 07:55:08;;;;;;;19.77;8.90;;;;;;;;;;6238019;28;24505;-79
2024/01/23 07:58:14;;;;;;;16.75;8.88;;;;;;;;;;6236600;28;24500;-77
2024/01/23 08:01:16;;;;;;;18.33;9.23;;;;;;;;;;6239184;28;24448;-78
2024/01/23 08:04:20;;;;;;;16.15;8.70;;;;;;;;;;6251206;28;24439;-78
2024/01/23 08:07:22;;;;;;;15.60;8.73;;;;;;;;;;6237346;28;24777;-78
2024/01/23 08:10:24;;;;;;;16.57;9.87;;;;;;;;;;6239033;28;24415;-77
2024/01/23 08:13:27;;;;;;;14.93;9.05;;;;;;;;;;6237676;28;24404;-77
2024/01/23 08:16:31;;;;;;;18.50;8.95;;;;;;;;;;6237114;28;24478;-78
2024/01/23 08:19:33;;;;;;;14.43;9.15;;;;;;;;;;6233328;28;24482;-78
2024/01/23 08:22:34;;;;;;;13.98;8.88;;;;;;;;;;6237132;28;24474;-78
2024/01/23 08:25:36;;;;;;;12.27;9.17;;;;;;;;;;6238723;28;24606;-78
2024/01/23 08:28:41;;;;;;;15.40;8.95;;;;;;;;;;6243771;28;24419;-77
2024/01/23 08:31:42;;;;;;;14.98;9.73;;;;;;;;;;6242289;28;24423;-77
2024/01/23 08:34:44;;;;;;;15.35;9.07;;;;;;;;;;6242862;28;24839;-77
2024/01/23 08:37:45;;;;;;;14.07;8.60;;;;;;;;;;6238549;28;24797;-77
2024/01/23 08:40:47;;;;;;;14.57;9.52;;;;;;;;;;6241109;28;24427;-79
2024/01/23 08:43:50;;;;;;;15.17;9.33;;;;;;;;;;6245352;28;24427;-78
2024/01/23 08:46:51;;;;;;;13.80;9.10;;;;;;;;;;6238732;28;24416;-75
2024/01/23 08:49:54;;;;;;;13.88;8.85;;;;;;;;;;6241071;28;24875;-75
2024/01/23 08:52:56;;;;;;;13.13;8.55;;;;;;;;;;6241523;28;24801;-75
2024/01/23 08:55:57;;;;;;;11.73;8.93;;;;;;;;;;6242588;28;24427;-75
2024/01/23 08:59:00;;;;;;;11.30;8.70;;;;;;;;;;6242595;28;24493;-75
2024/01/23 09:02:02;;;;;;;13.03;8.50;;;;;;;;;;6240295;28;24421;-75
2024/01/23 09:05:04;;;;;;;12.75;8.88;;;;;;;;;;6244556;28;24416;-75
2024/01/23 09:08:07;;;;;;;13.43;8.48;;;;;;;;;;6240612;28;24455;-75
2024/01/23 09:11:09;;;;;;;13.00;8.25;;;;;;;;;;6242097;28;24450;-76
2024/01/23 09:14:12;;;;;;;12.40;8.55;;;;;;;;;;6244490;28;24618;-75
2024/01/23 09:17:14;;;;;;;13.27;9.18;;;;;;;;;;6241506;28;24431;-75
2024/01/23 09:20:17;;;;;;;13.02;8.38;;;;;;;;;;6240493;28;24436;-75
2024/01/23 09:23:18;;;;;;;12.48;8.82;;;;;;;;;;6239128;28;24631;-74
2024/01/23 09:26:20;;;;;;;11.60;8.75;;;;;;;;;;6241642;28;24434;-75
2024/01/23 09:29:23;;;;;;;11.77;8.43;;;;;;;;;;6242656;28;24420;-75
2024/01/23 09:32:24;;;;;;;13.07;9.10;;;;;;;;;;6241227;28;24435;-75
2024/01/23 09:35:26;;;;;;;10.30;8.48;;;;;;;;;;6241215;28;24431;-75
2024/01/23 09:38:28;;;;;;;12.77;9.18;;;;;;;;;;6240730;28;24429;-75
2024/01/23 09:41:30;;;;;;;12.70;8.88;;;;;;;;;;6239690;28;24496;-75
2024/01/23 09:44:33;;;;;;;14.50;9.48;;;;;;;;;;6239592;28;24428;-75
2024/01/23 09:47:35;;;;;;;15.90;10.63;;;;;;;;;;6235217;28;24448;-75
2024/01/23 09:50:41;;;;;;;14.13;9.77;;;;;;;;;;6238161;28;24462;-75
2024/01/23 09:53:43;;;;;;;15.07;9.90;;;;;;;;;;6240995;28;24417;-75
2024/01/23 09:56:44;;;;;;;15.75;10.07;;;;;;;;;;6241285;28;24689;-75
2024/01/23 09:59:48;;;;;;;14.35;10.10;;;;;;;;;;6238143;28;24452;-75
2024/01/23 10:02:50;;;;;;;12.88;8.93;;;;;;;;;;6241766;28;24900;-75
2024/01/23 10:05:51;;;;;;;13.70;9.20;;;;;;;;;;6238769;28;24821;-74
2024/01/23 10:08:53;;;;;;;11.73;8.70;;;;;;;;;;6242223;28;24551;-75
2024/01/23 10:11:56;;;;;;;12.73;9.65;;;;;;;;;;6239732;28;24506;-75
2024/01/23 10:14:59;;;;;;;13.55;9.88;;;;;;;;;;6236520;28;24444;-75
2024/01/23 10:18:01;;;;;;;15.02;10.18;;;;;;;;;;6239007;28;24428;-75
2024/01/23 10:21:03;;;;;;;14.85;10.50;;;;;;;;;;6237586;28;24530;-75
2024/01/23 10:24:06;;;;;;;14.40;9.98;;;;;;;;;;6238397;28;24435;-75
2024/01/23 10:27:08;;;;;;;16.00;11.10;;;;;;;;;;6239947;28;24434;-75
2024/01/23 10:30:12;;;;;;;14.83;10.63;;;;;;;;;;6238242;28;24427;-75
2024/01/23 10:33:14;;;;;;;14.95;10.52;;;;;;;;;;6242349;28;24443;-75
2024/01/23 10:36:16;;;;;;;16.10;10.80;;;;;;;;;;6243077;28;24431;-75
2024/01/23 10:39:19;;;;;;;15.50;10.93;;;;;;;;;;6239163;28;25162;-74
2024/01/23 10:42:20;;;;;;;15.98;10.20;;;;;;;;;;6238227;28;24474;-73
2024/01/23 10:45:24;;;;;;;15.55;10.10;;;;;;;;;;6240213;28;24417;-74
2024/01/23 10:48:26;;;;;;;13.57;11.20;;;;;;;;;;6237811;28;24608;-74
2024/01/23 10:51:30;;;;;;;17.35;11.23;;;;;;;;;;6237000;28;24415;-73
2024/01/23 10:54:33;;;;;;;15.95;11.73;;;;;;;;;;6240594;28;24859;-74
2024/01/23 10:57:36;;;;;;;16.47;11.73;;;;;;;;;;6242129;28;24427;-74
2024/01/23 11:00:40;;;;;;;15.95;11.60;;;;;;;;;;6240734;28;24493;-74
2024/01/23 11:03:42;;;;;;;15.57;11.40;;;;;;;;;;6234095;28;24424;-75
2024/01/23 11:06:47;;;;;;;18.17;12.25;;;;;;;;;;6239404;28;24514;-74
2024/01/23 11:09:52;;;;;;;17.90;12.60;;;;;;;;;;6239683;28;24431;-74
2024/01/23 11:12:59;;;;;;;17.58;12.95;;;;;;;;;;6238965;28;24421;-74
2024/01/23 11:16:06;;;;;;;17.87;13.20;;;;;;;;;;6240663;28;24450;-74
2024/01/23 11:19:08;;;;;;;18.70;13.60;;;;;;;;;;6239251;28;24498;-74
2024/01/23 11:22:09;;;;;;;20.13;13.77;;;;;;;;;;6240061;28;24467;-74
2024/01/23 11:25:11;;;;;;;19.80;14.52;;;;;;;;;;6235389;28;24506;-74
2024/01/23 11:28:13;;;;;;;21.02;15.80;;;;;;;;;;6238279;28;24583;-74
2024/01/23 11:31:18;;;;;;;22.58;15.25;;;;;;;;;;6236437;28;24634;-75
2024/01/23 11:34:41;;;;;;;18.52;14.32;;;;;;;;;;6220624;28;24416;-75
2024/01/23 11:37:46;;;;;;;17.85;14.60;;;;;;;;;;6237618;28;24416;-74
2024/01/23 11:40:56;;;;;;;18.98;15.38;;;;;;;;;;6241391;28;24618;-74
2024/01/23 11:44:03;;;;;;;18.80;14.93;;;;;;;;;;6234058;28;24451;-74
2024/01/23 11:47:07;;;;;;;17.48;13.73;;;;;;;;;;6237804;28;24675;-74
2024/01/23 11:50:09;;;;;;;18.27;14.35;;;;;;;;;;6239533;28;24470;-75
2024/01/23 11:53:12;;;;;;;21.23;15.82;;;;;;;;;;6236981;28;24626;-74
2024/01/23 11:56:15;;;;;;;19.63;14.80;;;;;;;;;;6239324;28;24424;-76
2024/01/23 11:59:17;;;;;;;15.32;13.00;;;;;;;;;;6238320;28;24823;-74
2024/01/23 12:02:21;;;;;;;15.52;13.10;;;;;;;;;;6243938;28;24678;-74
2024/01/23 12:05:23;;;;;;;16.42;13.40;;;;;;;;;;6243977;28;24428;-74
2024/01/23 12:08:25;;;;;;;17.40;13.13;;;;;;;;;;6242276;28;24435;-73
2024/01/23 12:11:29;;;;;;;18.10;13.85;;;;;;;;;;6245216;28;24426;-74
2024/01/23 12:14:31;;;;;;;16.60;13.98;;;;;;;;;;6244399;28;24430;-74
2024/01/23 12:17:34;;;;;;;17.23;13.25;;;;;;;;;;6259233;28;24597;-73
2024/01/23 12:20:36;;;;;;;16.45;12.20;;;;;;;;;;6247048;28;24498;-74
2024/01/23 12:23:37;;;;;;;13.37;11.63;;;;;;;;;;6239896;28;24824;-74
2024/01/23 12:26:39;;;;;;;13.90;11.53;;;;;;;;;;6243024;28;24539;-74
2024/01/23 12:29:41;;;;;;;13.85;11.63;;;;;;;;;;6241074;28;24641;-74
2024/01/23 12:32:48;;;;;;;15.27;12.07;;;;;;;;;;6242083;28;24463;-75
2024/01/23 12:35:50;;;;;;;16.05;12.23;;;;;;;;;;6244926;28;24420;-75
2024/01/23 12:38:51;;;;;;;13.93;11.00;;;;;;;;;;6275958;28;24431;-74
2024/01/23 12:41:53;;;;;;;15.00;11.27;;;;;;;;;;6243581;28;24432;-74
2024/01/23 12:44:55;;;;;;;14.63;11.18;;;;;;;;;;6243057;28;24684;-74
2024/01/23 12:47:58;;;;;;;14.90;11.38;;;;;;;;;;6245109;28;24428;-74
2024/01/23 12:51:00;;;;;;;14.57;11.32;;;;;;;;;;6244595;28;24419;-75
2024/01/23 12:54:01;;;;;;;13.18;10.30;;;;;;;;;;6244736;28;25693;-74
2024/01/23 12:57:03;;;;;;;13.18;11.00;;;;;;;;;;6248258;28;24802;-74
2024/01/23 13:00:06;;;;;;;13.80;11.18;;;;;;;;;;6245758;28;24429;-73
2024/01/23 13:03:09;;;;;;;13.35;9.90;;;;;;;;;;6245121;28;24439;-74
2024/01/23 13:06:11;;;;;;;14.32;10.82;;;;;;;;;;6245161;28;24509;-74
2024/01/23 13:09:13;;;;;;;13.17;10.60;;;;;;;;;;6245760;28;24659;-75
2024/01/23 13:12:14;;;;;;;12.35;10.70;;;;;;;;;;6246075;28;24836;-75
2024/01/23 13:15:16;;;;;;;13.98;10.90;;;;;;;;;;6246013;28;24436;-75
2024/01/23 13:18:21;;;;;;;14.18;10.57;;;;;;;;;;6245241;28;24440;-74
2024/01/23 13:21:23;;;;;;;12.38;10.05;;;;;;;;;;6245392;28;24435;-74
2024/01/23 13:24:25;;;;;;;12.70;10.23;;;;;;;;;;6244605;28;24621;-74
2024/01/23 13:27:27;;;;;;;13.20;10.50;;;;;;;;;;6244002;28;24424;-74
2024/01/23 13:30:30;;;;;;;13.48;10.25;;;;;;;;;;6246369;28;24474;-74
2024/01/23 13:33:33;;;;;;;11.27;9.80;;;;;;;;;;6246447;28;24419;-74
2024/01/23 13:36:36;;;;;;;13.40;10.38;;;;;;;;;;6246982;28;24852;-75
2024/01/23 13:39:37;;;;;;;12.95;10.25;;;;;;;;;;6248957;28;24432;-75
2024/01/23 13:42:40;;;;;;;14.70;11.70;;;;;;;;;;6243364;28;24424;-75
2024/01/23 13:45:42;;;;;;;12.68;11.27;;;;;;;;;;6244757;28;24547;-75
2024/01/23 13:48:46;;;;;;;11.95;10.65;;;;;;;;;;6242890;28;24823;-75
2024/01/23 13:51:48;;;;;;;13.85;11.23;;;;;;;;;;6242762;28;24485;-75
2024/01/23 13:54:50;;;;;;;14.13;11.20;;;;;;;;;;6242202;28;24855;-75
2024/01/23 13:57:52;;;;;;;14.50;11.03;;;;;;;;;;6245575;28;24733;-75
2024/01/23 14:00:54;;;;;;;13.80;10.90;;;;;;;;;;6240266;28;24542;-76
2024/01/23 14:03:57;;;;;;;17.92;12.48;;;;;;;;;;6237220;28;24633;-76
2024/01/23 14:06:58;;;;;;;14.48;11.80;;;;;;;;;;6240062;28;24416;-75
2024/01/23 14:10:00;;;;;;;13.60;11.43;;;;;;;;;;6241479;28;24424;-75
2024/01/23 14:13:03;;;;;;;14.77;11.02;;;;;;;;;;6238720;28;24474;-75
2024/01/23 14:16:05;;;;;;;14.10;11.68;;;;;;;;;;6242089;28;24841;-76
2024/01/23 14:19:08;;;;;;;14.05;11.82;;;;;;;;;;6237053;28;24506;-75
2024/01/23 14:22:13;;;;;;;13.38;11.75;;;;;;;;;;6236412;28;24502;-75
2024/01/23 14:25:18;;;;;;;15.00;11.85;;;;;;;;;;6238033;28;24431;-75
2024/01/23 14:28:20;;;;;;;18.03;12.47;;;;;;;;;;6237010;28;24416;-75
2024/01/23 14:31:21;;;;;;;15.73;12.37;;;;;;;;;;6237042;28;24593;-75
2024/01/23 14:34:25;;;;;;;15.82;12.80;;;;;;;;;;6242935;28;24420;-75
2024/01/23 14:37:26;;;;;;;15.40;12.30;;;;;;;;;;6238792;28;24816;-75
2024/01/23 14:40:28;;;;;;;18.17;12.65;;;;;;;;;;6238169;28;24459;-76
2024/01/23 14:43:30;;;;;;;16.23;12.00;;;;;;;;;;6238473;28;24411;-75
2024/01/23 14:46:31;;;;;;;15.60;12.15;;;;;;;;;;6241783;28;24450;-75
2024/01/23 14:49:34;;;;;;;16.60;12.95;;;;;;;;;;6237878;28;24462;-75
2024/01/23 14:52:37;;;;;;;16.25;12.95;;;;;;;;;;6238333;28;24615;-75
2024/01/23 14:55:39;;;;;;;13.60;12.00;;;;;;;;;;6241988;28;24546;-75
2024/01/23 14:58:42;;;;;;;15.07;11.60;;;;;;;;;;6239401;28;24419;-76
2024/01/23 15:01:44;;;;;;;15.37;11.77;;;;;;;;;;6236456;28;24427;-76
2024/01/23 15:04:48;;;;;;;15.73;11.63;;;;;;;;;;6238096;28;24423;-75
2024/01/23 15:07:49;;;;;;;14.18;11.10;;;;;;;;;;6238341;28;24478;-76
2024/01/23 15:10:51;;;;;;;14.43;11.40;;;;;;;;;;6237414;28;24820;-75
2024/01/23 15:13:52;;;;;;;16.33;11.55;;;;;;;;;;6241049;28;24427;-75
2024/01/23 15:16:54;;;;;;;17.33;13.20;;;;;;;;;;6237098;28;24491;-75
2024/01/23 15:19:57;;;;;;;15.52;12.60;;;;;;;;;;6235769;28;24426;-75
2024/01/23 15:22:59;;;;;;;14.90;12.15;;;;;;;;;;6233141;28;24833;-74
2024/01/23 15:26:00;;;;;;;15.88;11.82;;;;;;;;;;6235746;28;24470;-76
2024/01/23 15:29:03;;;;;;;14.73;12.00;;;;;;;;;;6238088;28;24428;-74
2024/01/23 15:32:05;;;;;;;14.82;11.52;;;;;;;;;;6238340;28;24396;-75
2024/01/23 15:35:09;;;;;;;14.77;11.93;;;;;;;;;;6240830;28;24409;-75
2024/01/23 15:38:10;;;;;;;15.57;11.88;;;;;;;;;;6242964;28;24412;-76
2024/01/23 15:41:14;;;;;;;15.65;11.85;;;;;;;;;;6242957;28;24430;-75
2024/01/23 15:44:16;;;;;;;18.75;12.98;;;;;;;;;;6242102;28;24543;-75
2024/01/23 15:47:18;;;;;;;15.53;11.57;;;;;;;;;;6252117;28;24481;-75
2024/01/23 15:50:21;;;;;;;14.70;11.82;;;;;;;;;;6252393;28;24440;-75
2024/01/23 15:53:22;;;;;;;15.63;11.98;;;;;;;;;;6242930;28;24417;-75
2024/01/23 15:56:24;;;;;;;15.68;11.88;;;;;;;;;;6243110;28;24626;-75
2024/01/23 15:59:31;;;;;;;14.73;11.98;;;;;;;;;;6242226;28;24821;-74
2024/01/23 16:02:33;;;;;;;16.80;12.50;;;;;;;;;;6240365;28;25069;-73
2024/01/23 16:05:40;;;;;;;16.85;12.90;;;;;;;;;;6244824;28;24431;-73
2024/01/23 16:08:42;;;;;;;16.55;12.50;;;;;;;;;;6243208;28;24431;-74
2024/01/23 16:15:05;;;;;;;17.85;12.73;;;;;;;;;;6244824;28;24432;-74
2024/01/23 16:18:07;;;;;;;16.10;12.20;;;;;;;;;;6241906;28;24451;-74
2024/01/23 16:21:20;;;;;;;17.00;12.52;;;;;;;;;;6243441;28;24443;-74
2024/01/23 16:24:26;;;;;;;16.52;12.25;;;;;;;;;;6242609;28;24440;-74
2024/01/23 16:27:28;;;;;;;16.40;12.95;;;;;;;;;;6240754;28;24431;-76
2024/01/23 16:30:29;;;;;;;18.50;12.82;;;;;;;;;;6242027;28;24979;-73
2024/01/23 16:33:31;;;;;;;18.05;12.27;;;;;;;;;;6241152;28;24431;-75
2024/01/23 16:36:34;;;;;;;15.73;12.05;;;;;;;;;;6241317;28;24435;-75
2024/01/23 16:39:35;;;;;;;17.40;13.00;;;;;;;;;;6239967;28;24434;-75
2024/01/23 16:42:38;;;;;;;17.60;13.35;;;;;;;;;;6243194;28;24436;-77
2024/01/23 16:45:40;;;;;;;19.10;13.43;;;;;;;;;;6235219;28;24424;-75
2024/01/23 16:48:41;;;;;;;17.90;13.15;;;;;;;;;;6241476;28;24503;-74
2024/01/23 16:51:44;;;;;;;19.65;14.13;;;;;;;;;;6241098;28;24432;-74
2024/01/23 16:54:46;;;;;;;18.48;13.93;;;;;;;;;;6241703;28;24487;-75
2024/01/23 16:57:48;;;;;;;18.33;13.10;;;;;;;;;;6242747;28;24473;-74
2024/01/23 17:00:50;;;;;;;19.02;14.15;;;;;;;;;;6241676;28;24892;-74
2024/01/23 17:03:52;;;;;;;19.33;14.32;;;;;;;;;;6239032;28;24483;-74
2024/01/23 17:06:55;;;;;;;20.90;14.90;;;;;;;;;;6239695;28;24424;-75
2024/01/23 17:09:56;;;;;;;21.20;15.15;;;;;;;;;;6241013;28;24555;-74
2024/01/23 17:12:58;;;;;;;23.80;15.70;;;;;;;;;;6240243;28;25096;-74
2024/01/23 17:15:59;;;;;;;21.48;15.88;;;;;;;;;;6242265;28;24626;-74
2024/01/23 17:19:01;;;;;;;20.15;15.48;;;;;;;;;;6240030;28;24440;-74
2024/01/23 17:22:04;;;;;;;20.90;15.75;;;;;;;;;;6260459;28;24434;-75
2024/01/23 17:25:06;;;;;;;22.03;16.33;;;;;;;;;;6240259;28;24482;-74
2024/01/23 17:28:10;;;;;;;76.25;48.83;;;;;;;;;;6241436;28;24428;-75
2024/01/23 17:31:12;;;;;;;159.13;83.82;;;;;;;;;;6244515;28;24427;-75
2024/01/23 17:34:14;;;;;;;93.13;47.88;;;;;;;;;;6239601;28;24462;-75
2024/01/23 17:37:20;;;;;;;34.38;21.65;;;;;;;;;;6262200;28;24439;-74
2024/01/23 17:40:22;;;;;;;23.55;16.92;;;;;;;;;;6241740;28;24531;-74
2024/01/23 17:43:23;;;;;;;24.77;17.03;;;;;;;;;;6240998;28;24412;-74
2024/01/23 17:46:28;;;;;;;25.50;17.02;;;;;;;;;;6241803;28;24855;-73
2024/01/23 17:49:32;;;;;;;23.58;17.00;;;;;;;;;;6243694;28;24424;-74
2024/01/23 17:52:35;;;;;;;22.50;17.08;;;;;;;;;;6240691;28;24442;-74
2024/01/23 17:55:39;;;;;;;22.95;17.27;;;;;;;;;;6240219;28;24423;-74